Time;durP1;ratioP1;P1;durP2;ratioP2;P2;SDS_P1;SDS_P2;PMS_P1;PMS_P2;Temp;Humidity;BMP_temperature;BMP_pressure;BME280_temperature;BME280_humidity;BME280_pressure;Samples;Min_cycle;Max_cycle;Signal;HPM_P1;HPM_P2
2023/12/14 00:02:07;;;;;;;11.73;7.65;;;4.20;99.90;;;;;;5092143;28;20403;-67
2023/12/14 00:04:32;;;;;;;11.50;6.90;;;4.20;99.90;;;;;;5091825;28;20132;-67
2023/12/14 00:06:58;;;;;;;9.43;6.20;;;4.20;99.90;;;;;;5091397;28;20032;-67
2023/12/14 00:09:24;;;;;;;9.68;6.22;;;4.20;99.90;;;;;;5091779;28;20044;-67
2023/12/14 00:11:49;;;;;;;10.43;6.15;;;4.20;99.90;;;;;;5074867;28;20119;-67
2023/12/14 00:14:15;;;;;;;11.43;7.13;;;4.10;99.90;;;;;;5073678;28;20028;-67
2023/12/14 00:16:41;;;;;;;10.85;6.47;;;4.20;99.90;;;;;;5091236;28;20111;-67
2023/12/14 00:19:07;;;;;;;10.35;5.78;;;4.20;99.90;;;;;;5090989;28;20044;-67
2023/12/14 00:21:32;;;;;;;10.82;6.38;;;4.10;99.90;;;;;;5057039;28;20083;-67
2023/12/14 00:23:58;;;;;;;10.60;6.30;;;4.10;99.90;;;;;;5090194;28;20377;-67
2023/12/14 00:26:24;;;;;;;10.48;6.63;;;4.10;99.90;;;;;;5070462;28;20370;-67
2023/12/14 00:28:49;;;;;;;8.27;5.28;;;4.10;99.90;;;;;;5093756;28;20036;-67
2023/12/14 00:31:15;;;;;;;11.07;7.07;;;4.10;99.90;;;;;;5076632;28;20071;-67
2023/12/14 00:33:41;;;;;;;10.75;6.63;;;4.10;99.90;;;;;;5094489;28;20105;-67
2023/12/14 00:36:07;;;;;;;11.80;6.55;;;4.10;99.90;;;;;;5094179;28;20040;-67
2023/12/14 00:38:32;;;;;;;14.73;7.07;;;4.10;99.90;;;;;;5090225;28;20396;-67
2023/12/14 00:40:58;;;;;;;12.57;6.13;;;4.10;99.90;;;;;;5093605;28;20106;-67
2023/12/14 00:43:24;;;;;;;8.70;5.90;;;4.10;99.90;;;;;;5091030;28;20044;-67
2023/12/14 00:45:50;;;;;;;10.68;6.72;;;4.10;99.90;;;;;;5058239;28;20098;-67
2023/12/14 00:48:15;;;;;;;10.65;6.50;;;4.10;99.90;;;;;;5088495;28;20459;-67
2023/12/14 00:50:41;;;;;;;8.43;5.43;;;4.10;99.90;;;;;;5092733;28;20075;-67
2023/12/14 00:53:07;;;;;;;9.63;6.18;;;4.10;99.90;;;;;;5093227;28;20489;-67
2023/12/14 00:55:33;;;;;;;10.25;5.43;;;4.10;99.90;;;;;;5060558;28;20495;-67
2023/12/14 00:57:58;;;;;;;9.55;5.82;;;4.10;99.90;;;;;;5091732;28;20036;-67
2023/12/14 01:00:24;;;;;;;13.05;6.70;;;4.10;99.90;;;;;;5094586;28;20035;-67
2023/12/14 01:02:50;;;;;;;12.73;6.70;;;4.10;99.90;;;;;;5091130;28;20509;-67
2023/12/14 01:05:16;;;;;;;10.93;6.38;;;4.10;99.90;;;;;;5092476;28;20043;-67
2023/12/14 01:07:41;;;;;;;10.80;5.90;;;4.10;99.90;;;;;;5089067;28;20528;-67
2023/12/14 01:10:07;;;;;;;12.85;6.70;;;4.10;99.90;;;;;;5092172;28;20036;-67
2023/12/14 01:12:33;;;;;;;12.80;7.35;;;4.10;99.90;;;;;;5072625;28;20048;-67
2023/12/14 01:14:59;;;;;;;16.55;6.65;;;4.10;99.90;;;;;;5072507;28;20097;-67
2023/12/14 01:17:25;;;;;;;11.43;6.57;;;4.10;99.90;;;;;;5091125;28;20459;-67
2023/12/14 01:19:50;;;;;;;11.65;6.50;;;4.10;99.90;;;;;;5088419;28;20457;-67
2023/12/14 01:22:16;;;;;;;11.68;6.63;;;4.10;99.90;;;;;;5074443;28;20078;-67
2023/12/14 01:24:42;;;;;;;11.27;7.13;;;4.20;99.90;;;;;;5087292;28;20036;-67
2023/12/14 01:27:09;;;;;;;12.13;6.25;;;4.10;99.90;;;;;;5093478;28;20036;-67
2023/12/14 01:29:35;;;;;;;10.75;6.15;;;4.00;99.90;;;;;;5069898;28;20126;-67
2023/12/14 01:32:01;;;;;;;12.48;6.22;;;4.10;99.90;;;;;;5090277;28;20036;-67
2023/12/14 01:34:27;;;;;;;9.07;6.05;;;4.00;99.90;;;;;;5091048;28;20040;-67
2023/12/14 01:36:52;;;;;;;9.80;5.40;;;4.00;99.90;;;;;;5087731;28;20405;-67
2023/12/14 01:39:18;;;;;;;9.20;5.88;;;4.00;99.90;;;;;;5089926;28;20035;-67
2023/12/14 01:41:44;;;;;;;10.45;6.13;;;4.00;99.90;;;;;;5090407;28;20036;-67
2023/12/14 01:44:10;;;;;;;13.00;6.15;;;4.00;99.90;;;;;;5090947;28;20039;-67
2023/12/14 01:46:35;;;;;;;13.10;6.20;;;4.00;99.90;;;;;;5072666;28;20032;-67
2023/12/14 01:49:01;;;;;;;10.90;6.25;;;4.00;99.90;;;;;;5054997;28;20036;-67
2023/12/14 01:51:27;;;;;;;10.30;6.03;;;3.90;99.90;;;;;;5090512;28;20044;-66
2023/12/14 01:53:52;;;;;;;12.02;6.68;;;3.90;99.90;;;;;;5088527;28;20075;-67
2023/12/14 01:56:18;;;;;;;8.55;5.72;;;3.90;99.90;;;;;;5073233;28;20036;-67
2023/12/14 01:58:44;;;;;;;11.18;6.65;;;3.90;99.90;;;;;;5072901;28;20042;-67
2023/12/14 02:01:39;;;;;;;12.05;6.18;;;3.90;99.90;;;;;;5089511;28;20191;-67
2023/12/14 02:04:08;;;;;;;10.90;6.05;;;3.90;99.90;;;;;;5087324;28;20044;-67
2023/12/14 02:06:34;;;;;;;11.02;5.78;;;3.90;99.90;;;;;;5072556;28;20102;-67
2023/12/14 02:08:59;;;;;;;11.15;7.13;;;3.80;99.90;;;;;;5088026;28;20031;-67
2023/12/14 02:11:25;;;;;;;11.35;6.60;;;3.90;99.90;;;;;;5088305;28;20032;-67
2023/12/14 02:13:51;;;;;;;12.65;6.30;;;3.80;99.90;;;;;;5090656;28;20043;-67
2023/12/14 02:16:16;;;;;;;9.93;6.05;;;3.80;99.90;;;;;;5090765;28;20046;-67
2023/12/14 02:18:43;;;;;;;13.80;6.28;;;3.80;99.90;;;;;;5071940;28;20042;-67
2023/12/14 02:21:09;;;;;;;12.55;6.43;;;3.80;99.90;;;;;;5088116;28;20544;-67
2023/12/14 02:23:35;;;;;;;12.25;6.50;;;3.90;99.90;;;;;;5089494;28;20024;-67
2023/12/14 02:26:01;;;;;;;9.38;5.30;;;3.80;99.90;;;;;;5087865;28;20087;-67
2023/12/14 02:28:26;;;;;;;11.05;6.10;;;3.80;99.90;;;;;;5071926;28;20039;-67
2023/12/14 02:30:52;;;;;;;12.20;7.18;;;3.80;99.90;;;;;;5089986;28;20043;-67
2023/12/14 02:33:18;;;;;;;11.82;6.82;;;3.80;99.90;;;;;;5091675;28;20074;-67
2023/12/14 02:35:43;;;;;;;11.57;6.90;;;3.80;99.90;;;;;;5071941;28;20060;-67
2023/12/14 02:38:09;;;;;;;13.65;6.22;;;3.90;99.90;;;;;;5087803;28;20114;-67
2023/12/14 02:40:35;;;;;;;11.18;5.47;;;3.80;99.90;;;;;;5087531;28;20047;-67
2023/12/14 02:43:01;;;;;;;9.95;5.40;;;3.80;99.90;;;;;;5087568;28;20036;-67
2023/12/14 02:45:26;;;;;;;12.20;6.22;;;3.80;99.90;;;;;;5089191;28;20044;-66
2023/12/14 02:47:54;;;;;;;9.95;6.88;;;3.70;99.90;;;;;;5089256;28;20118;-67
2023/12/14 02:50:19;;;;;;;15.30;7.10;;;3.80;99.90;;;;;;5074907;28;20173;-67
2023/12/14 02:52:45;;;;;;;14.15;6.78;;;3.80;99.90;;;;;;5071560;28;20541;-67
2023/12/14 02:55:11;;;;;;;10.13;6.55;;;3.80;99.90;;;;;;5088165;28;20133;-67
2023/12/14 02:57:36;;;;;;;11.00;6.30;;;3.80;99.90;;;;;;5087067;28;20131;-67
2023/12/14 03:00:03;;;;;;;12.60;7.10;;;3.80;99.90;;;;;;5071294;28;20044;-67
2023/12/14 03:02:28;;;;;;;10.95;6.05;;;3.80;99.90;;;;;;5071415;28;20488;-67
2023/12/14 03:04:54;;;;;;;8.38;5.85;;;3.80;99.90;;;;;;5075641;28;20058;-67
2023/12/14 03:07:20;;;;;;;10.63;6.05;;;3.80;99.90;;;;;;5095302;28;20115;-67
2023/12/14 03:09:45;;;;;;;11.30;5.97;;;3.80;99.90;;;;;;5074171;28;20710;-67
2023/12/14 03:12:11;;;;;;;9.52;6.05;;;3.70;99.90;;;;;;5076045;28;20073;-67
2023/12/14 03:14:37;;;;;;;10.23;5.30;;;3.80;99.90;;;;;;5075372;28;20043;-67
2023/12/14 03:17:03;;;;;;;8.95;6.15;;;3.70;99.90;;;;;;5093841;28;20047;-67
2023/12/14 03:19:29;;;;;;;9.07;5.68;;;3.70;99.90;;;;;;5093447;28;20036;-67
2023/12/14 03:21:55;;;;;;;9.00;6.07;;;3.80;99.90;;;;;;5092857;28;20082;-67
2023/12/14 03:24:20;;;;;;;12.32;6.28;;;3.70;99.90;;;;;;5088801;28;20043;-67
2023/12/14 03:26:46;;;;;;;11.40;5.65;;;3.70;99.90;;;;;;5093439;28;20107;-67
2023/12/14 03:29:12;;;;;;;9.98;5.53;;;3.70;99.90;;;;;;5056902;28;20536;-67
2023/12/14 03:31:39;;;;;;;12.70;6.25;;;3.70;99.90;;;;;;5091765;28;20028;-67
2023/12/14 03:34:05;;;;;;;14.55;5.90;;;3.80;99.90;;;;;;5076824;28;20058;-67
2023/12/14 03:36:31;;;;;;;13.68;6.13;;;3.70;99.90;;;;;;5092535;28;20478;-67
2023/12/14 03:38:57;;;;;;;11.15;6.05;;;3.70;99.90;;;;;;5093714;28;20046;-67
2023/12/14 03:41:22;;;;;;;10.52;6.32;;;3.70;99.90;;;;;;5093767;28;20035;-67
2023/12/14 03:43:48;;;;;;;11.88;5.22;;;3.70;99.90;;;;;;5093298;28;20098;-67
2023/12/14 03:46:14;;;;;;;9.90;5.35;;;3.70;99.90;;;;;;5093646;28;20067;-67
2023/12/14 03:48:40;;;;;;;9.57;5.53;;;3.70;99.90;;;;;;5075007;28;20086;-67
2023/12/14 03:51:06;;;;;;;9.70;5.65;;;3.70;99.90;;;;;;5079257;28;20032;-67
2023/12/14 03:53:32;;;;;;;12.43;5.65;;;3.70;99.90;;;;;;5075139;28;20105;-67
2023/12/14 03:55:58;;;;;;;10.30;5.80;;;3.80;99.90;;;;;;5093613;28;20113;-67
2023/12/14 03:58:24;;;;;;;11.65;5.60;;;3.70;99.90;;;;;;5092035;28;20378;-67
2023/12/14 04:00:49;;;;;;;10.27;5.55;;;3.70;99.90;;;;;;5090520;28;20166;-67
2023/12/14 04:03:15;;;;;;;12.05;5.95;;;3.70;99.90;;;;;;5091153;28;20105;-67
2023/12/14 04:05:41;;;;;;;11.82;5.70;;;3.70;99.90;;;;;;5090693;28;20071;-67
2023/12/14 04:08:07;;;;;;;12.40;5.28;;;3.70;99.90;;;;;;5090122;28;20043;-67
2023/12/14 04:10:33;;;;;;;11.13;6.00;;;3.70;99.90;;;;;;5077770;28;20557;-67
2023/12/14 04:12:58;;;;;;;20.13;7.75;;;3.70;99.90;;;;;;5075496;28;20040;-67
2023/12/14 04:15:24;;;;;;;12.45;6.32;;;3.70;99.90;;;;;;5075810;28;20032;-67
2023/12/14 04:17:50;;;;;;;14.60;6.18;;;3.70;99.90;;;;;;5074456;28;20414;-67
2023/12/14 04:20:16;;;;;;;12.23;5.60;;;3.70;99.90;;;;;;5091761;28;20353;-67
2023/12/14 04:22:45;;;;;;;16.35;6.53;;;3.70;99.90;;;;;;5091044;28;20093;-67
2023/12/14 04:25:11;;;;;;;24.85;6.57;;;3.70;99.90;;;;;;5090455;28;20071;-67
2023/12/14 04:27:37;;;;;;;10.73;5.95;;;3.70;99.90;;;;;;5090016;28;20063;-67
2023/12/14 04:30:04;;;;;;;13.30;6.40;;;3.70;99.90;;;;;;5088869;28;20070;-67
2023/12/14 04:32:30;;;;;;;13.23;5.55;;;3.80;99.90;;;;;;5094036;28;20040;-67
2023/12/14 04:34:56;;;;;;;10.68;5.72;;;3.70;99.90;;;;;;5092314;28;20082;-67
2023/12/14 04:37:22;;;;;;;12.05;5.72;;;4.00;99.90;;;;;;5092584;28;20040;-67
2023/12/14 04:39:47;;;;;;;9.70;5.47;;;3.70;99.90;;;;;;5090995;28;20040;-67
2023/12/14 04:42:13;;;;;;;8.95;5.85;;;3.70;99.90;;;;;;5075358;28;20108;-67
2023/12/14 04:44:39;;;;;;;8.68;5.05;;;3.70;99.90;;;;;;5093999;27;20028;-67
2023/12/14 04:47:04;;;;;;;9.23;5.47;;;3.70;99.90;;;;;;5092418;28;20048;-67
2023/12/14 04:49:30;;;;;;;8.73;5.65;;;3.70;99.90;;;;;;5086145;28;20058;-67
2023/12/14 04:51:56;;;;;;;11.77;5.57;;;3.70;99.90;;;;;;5091307;28;20516;-67
2023/12/14 04:54:21;;;;;;;9.23;5.57;;;3.70;99.90;;;;;;5090737;28;20036;-67
2023/12/14 04:56:47;;;;;;;9.82;5.78;;;3.70;99.90;;;;;;5075612;28;20032;-67
2023/12/14 04:59:13;;;;;;;11.10;5.47;;;3.70;99.90;;;;;;5091403;28;20034;-67
2023/12/14 05:01:38;;;;;;;9.18;5.40;;;3.70;99.90;;;;;;5093931;28;20040;-67
2023/12/14 05:04:04;;;;;;;10.38;6.00;;;3.70;99.90;;;;;;5087239;28;20071;-67
2023/12/14 05:06:32;;;;;;;10.82;5.57;;;3.70;99.90;;;;;;5069936;28;20044;-67
2023/12/14 05:08:58;;;;;;;7.45;5.15;;;2.60;99.90;;;;;;5068096;28;20386;-67
2023/12/14 05:11:24;;;;;;;15.88;6.88;;;3.70;99.90;;;;;;5063799;28;20092;-67
2023/12/14 05:13:50;;;;;;;11.45;5.72;;;3.70;99.90;;;;;;5089338;28;20047;-67
2023/12/14 05:16:16;;;;;;;11.25;7.07;;;3.70;99.90;;;;;;5085096;28;20040;-67
2023/12/14 05:18:42;;;;;;;10.00;5.65;;;3.70;99.90;;;;;;5085621;28;20124;-67
2023/12/14 05:21:08;;;;;;;10.00;5.80;;;3.70;99.90;;;;;;5088179;28;20103;-67
2023/12/14 05:23:34;;;;;;;11.38;6.32;;;3.70;99.90;;;;;;5089638;28;20477;-67
2023/12/14 05:26:00;;;;;;;12.10;6.65;;;3.70;99.90;;;;;;5087009;28;20501;-67
2023/12/14 05:28:25;;;;;;;12.63;6.63;;;3.70;99.90;;;;;;5091271;28;20093;-67
2023/12/14 05:30:51;;;;;;;10.65;6.50;;;3.70;99.90;;;;;;5088364;28;20046;-67
2023/12/14 05:33:17;;;;;;;10.98;6.63;;;3.70;99.90;;;;;;5089542;28;20036;-67
2023/12/14 05:35:43;;;;;;;12.05;6.32;;;3.70;99.90;;;;;;5086094;28;20397;-67
2023/12/14 05:38:09;;;;;;;10.20;5.82;;;3.70;99.90;;;;;;5088227;28;20044;-67
2023/12/14 05:40:34;;;;;;;16.02;6.97;;;3.70;99.90;;;;;;5089039;28;20049;-67
2023/12/14 05:43:00;;;;;;;11.05;5.40;;;3.70;99.90;;;;;;5070527;28;20032;-67
2023/12/14 05:45:26;;;;;;;11.10;6.10;;;3.70;99.90;;;;;;5088152;28;20035;-67
2023/12/14 05:47:51;;;;;;;13.60;7.15;;;3.70;99.90;;;;;;5092086;28;20500;-67
2023/12/14 05:50:17;;;;;;;11.57;5.72;;;3.70;99.90;;;;;;5089801;28;20050;-67
2023/12/14 05:52:45;;;;;;;12.57;6.88;;;3.70;99.90;;;;;;5090584;28;20032;-67
2023/12/14 05:55:11;;;;;;;10.73;6.28;;;3.70;99.90;;;;;;5072942;28;20155;-67
2023/12/14 05:57:37;;;;;;;11.52;6.40;;;3.60;99.90;;;;;;5089471;28;20040;-67
2023/12/14 06:00:05;;;;;;;12.80;6.40;;;3.60;99.90;;;;;;5089649;28;20048;-67
2023/12/14 06:02:32;;;;;;;11.98;5.75;;;3.60;99.90;;;;;;5088214;28;20036;-67
2023/12/14 06:04:57;;;;;;;12.43;6.22;;;3.60;99.90;;;;;;5092185;28;20141;-67
2023/12/14 06:07:24;;;;;;;10.05;6.35;;;3.60;99.90;;;;;;5070967;28;20119;-67
2023/12/14 06:09:49;;;;;;;15.80;7.32;;;3.60;99.90;;;;;;5088287;28;20040;-67
2023/12/14 06:12:15;;;;;;;12.10;6.70;;;3.60;99.90;;;;;;5087852;28;20043;-67
2023/12/14 06:14:41;;;;;;;13.95;5.93;;;3.60;99.90;;;;;;5098429;28;20389;-67
2023/12/14 06:17:07;;;;;;;12.02;6.45;;;3.60;99.90;;;;;;5109714;28;20043;-67
2023/12/14 06:19:32;;;;;;;10.60;6.28;;;3.60;99.90;;;;;;5107303;28;20495;-67
2023/12/14 06:21:58;;;;;;;10.85;6.07;;;3.60;99.90;;;;;;5098617;28;20079;-67
2023/12/14 06:24:24;;;;;;;11.48;6.70;;;3.70;99.90;;;;;;5106316;28;20053;-67
2023/12/14 06:26:50;;;;;;;11.32;5.68;;;3.60;99.90;;;;;;5109504;28;20040;-67
2023/12/14 06:29:15;;;;;;;13.07;6.20;;;3.60;99.90;;;;;;5106285;28;20124;-67
2023/12/14 06:31:41;;;;;;;12.98;6.32;;;3.60;99.90;;;;;;5095354;28;20085;-66
2023/12/14 06:34:07;;;;;;;9.32;5.75;;;3.60;99.90;;;;;;5105324;28;20047;-67
2023/12/14 06:36:34;;;;;;;10.90;5.50;;;3.60;99.90;;;;;;5109385;28;20047;-67
2023/12/14 06:39:00;;;;;;;13.02;5.97;;;3.60;99.90;;;;;;5104355;28;20074;-67
2023/12/14 06:41:27;;;;;;;14.30;6.80;;;3.60;99.90;;;;;;5098054;28;20036;-67
2023/12/14 06:43:54;;;;;;;11.13;6.13;;;3.60;99.90;;;;;;5104917;28;20043;-67
2023/12/14 06:46:20;;;;;;;12.23;6.93;;;3.60;99.90;;;;;;5110506;28;20033;-67
2023/12/14 06:48:47;;;;;;;11.30;6.65;;;3.60;99.90;;;;;;5096302;28;20040;-67
2023/12/14 06:51:12;;;;;;;13.30;7.13;;;3.60;99.90;;;;;;5075094;28;20031;-67
2023/12/14 06:53:43;;;;;;;10.23;6.00;;;3.60;99.90;;;;;;5107217;28;20044;-67
2023/12/14 06:56:10;;;;;;;12.23;6.68;;;3.60;99.90;;;;;;5088490;28;20097;-67
2023/12/14 06:58:40;;;;;;;10.30;6.13;;;3.60;99.90;;;;;;5109880;28;20394;-67
2023/12/14 07:01:07;;;;;;;11.70;7.63;;;3.60;99.90;;;;;;5096317;28;20738;-67
2023/12/14 07:03:32;;;;;;;9.98;6.32;;;3.60;99.90;;;;;;5109102;28;20039;-67
2023/12/14 07:05:58;;;;;;;12.77;6.65;;;3.60;99.90;;;;;;5102475;28;20051;-67
2023/12/14 07:08:24;;;;;;;13.90;6.80;;;3.60;99.90;;;;;;5105035;28;20059;-67
2023/12/14 07:10:50;;;;;;;13.77;7.03;;;3.60;99.90;;;;;;5094762;28;20035;-67
2023/12/14 07:13:16;;;;;;;14.43;7.28;;;3.60;99.90;;;;;;5096429;28;20416;-67
2023/12/14 07:15:42;;;;;;;12.65;6.70;;;3.60;99.90;;;;;;5083234;28;20389;-67
2023/12/14 07:18:08;;;;;;;14.77;7.20;;;3.60;99.90;;;;;;5087363;28;20039;-67
2023/12/14 07:20:33;;;;;;;10.70;6.65;;;3.60;99.90;;;;;;5089860;28;20119;-67
2023/12/14 07:22:59;;;;;;;12.30;6.93;;;3.60;99.90;;;;;;5088813;28;20048;-66
2023/12/14 07:25:25;;;;;;;11.30;6.50;;;3.60;99.90;;;;;;5096954;28;20039;-67
2023/12/14 07:27:50;;;;;;;11.88;6.82;;;3.60;99.90;;;;;;5074230;28;20036;-67
2023/12/14 07:30:16;;;;;;;12.68;7.30;;;3.60;99.90;;;;;;5088619;28;20118;-67
2023/12/14 07:32:42;;;;;;;14.82;6.90;;;3.60;99.90;;;;;;5099311;28;20040;-67
2023/12/14 07:35:09;;;;;;;18.33;7.55;;;3.90;99.90;;;;;;5088832;28;20063;-67
2023/12/14 07:37:35;;;;;;;15.18;7.82;;;3.60;99.90;;;;;;5111365;28;20519;-67
2023/12/14 07:40:03;;;;;;;18.40;7.57;;;3.70;99.90;;;;;;5109263;28;20036;-67
2023/12/14 07:42:28;;;;;;;14.90;7.88;;;3.60;99.90;;;;;;5108670;28;20044;-67
2023/12/14 07:44:54;;;;;;;17.45;7.93;;;3.60;99.90;;;;;;5090657;28;20145;-67
2023/12/14 07:47:20;;;;;;;18.42;8.15;;;3.60;99.90;;;;;;5089711;28;20109;-67
2023/12/14 07:49:46;;;;;;;13.27;7.10;;;3.60;99.90;;;;;;5108614;28;20031;-67
2023/12/14 07:52:13;;;;;;;13.63;7.43;;;3.60;99.90;;;;;;5086680;28;20093;-67
2023/12/14 07:54:39;;;;;;;11.55;6.68;;;3.60;99.90;;;;;;5095433;28;20065;-67
2023/12/14 07:57:05;;;;;;;16.00;7.80;;;3.60;99.90;;;;;;5104215;28;20463;-67
2023/12/14 07:59:31;;;;;;;16.13;7.70;;;3.60;99.90;;;;;;5112074;28;20127;-67
2023/12/14 08:01:56;;;;;;;21.20;8.20;;;3.60;99.90;;;;;;5102747;28;20074;-67
2023/12/14 08:04:23;;;;;;;13.60;7.03;;;3.60;99.90;;;;;;5112097;28;20118;-67
2023/12/14 08:06:49;;;;;;;16.90;7.43;;;3.60;99.90;;;;;;5102304;28;20075;-67
2023/12/14 08:09:15;;;;;;;15.90;7.43;;;3.60;99.90;;;;;;5112994;28;20067;-67
2023/12/14 08:11:40;;;;;;;16.10;7.32;;;3.60;99.90;;;;;;5092061;28;20049;-67
2023/12/14 08:14:06;;;;;;;20.27;9.05;;;3.60;99.90;;;;;;5087183;28;20116;-67
2023/12/14 08:16:32;;;;;;;21.55;8.57;;;3.70;99.90;;;;;;5091427;28;20059;-67
2023/12/14 08:18:57;;;;;;;20.52;8.35;;;3.60;99.90;;;;;;5108612;28;20061;-67
2023/12/14 08:21:23;;;;;;;14.55;7.10;;;3.60;99.90;;;;;;5092526;28;20085;-67
2023/12/14 08:23:49;;;;;;;16.35;8.60;;;3.60;99.90;;;;;;5071760;28;20038;-67
2023/12/14 08:26:15;;;;;;;14.70;8.18;;;3.60;99.90;;;;;;5092059;28;20333;-67
2023/12/14 08:28:41;;;;;;;14.23;7.97;;;3.70;99.90;;;;;;5077012;28;20031;-67
2023/12/14 08:31:08;;;;;;;15.80;8.40;;;3.70;99.90;;;;;;5100815;28;20488;-66
2023/12/14 08:33:33;;;;;;;15.68;7.95;;;3.70;99.90;;;;;;5094390;28;20079;-67
2023/12/14 08:35:59;;;;;;;12.68;7.72;;;3.70;99.90;;;;;;5098183;28;20083;-67
2023/12/14 08:38:25;;;;;;;16.40;7.85;;;3.70;99.90;;;;;;5085716;28;20431;-67
2023/12/14 08:40:51;;;;;;;23.42;9.00;;;3.70;99.90;;;;;;5090197;28;20036;-67
2023/12/14 08:43:17;;;;;;;14.60;8.57;;;3.70;99.90;;;;;;5086830;28;20575;-67
2023/12/14 08:45:42;;;;;;;16.67;7.93;;;3.70;99.90;;;;;;5084477;28;20477;-67
2023/12/14 08:48:08;;;;;;;13.48;8.18;;;3.70;99.90;;;;;;5104238;28;20036;-67
2023/12/14 08:50:34;;;;;;;18.63;8.85;;;3.70;99.90;;;;;;5098360;28;20524;-67
2023/12/14 08:53:00;;;;;;;16.48;8.50;;;3.70;99.90;;;;;;5098739;28;20090;-66
2023/12/14 08:55:27;;;;;;;18.00;9.07;;;3.70;99.90;;;;;;5093275;28;20043;-67
2023/12/14 08:57:53;;;;;;;16.98;8.30;;;3.70;99.90;;;;;;5104424;28;20545;-66
2023/12/14 09:00:19;;;;;;;19.65;9.40;;;3.80;99.90;;;;;;5101728;28;20040;-67
2023/12/14 09:02:47;;;;;;;18.17;9.02;;;3.80;99.90;;;;;;5089386;28;20047;-67
2023/12/14 09:05:14;;;;;;;18.67;9.82;;;3.80;99.90;;;;;;5095277;28;20040;-67
2023/12/14 09:07:40;;;;;;;17.10;8.18;;;3.80;99.90;;;;;;5074447;28;20056;-66
2023/12/14 09:10:06;;;;;;;14.75;7.93;;;3.80;99.90;;;;;;5095798;28;20051;-67
2023/12/14 09:12:34;;;;;;;12.52;7.53;;;3.80;99.90;;;;;;5078761;28;20084;-67
2023/12/14 09:15:00;;;;;;;16.67;8.68;;;3.80;99.90;;;;;;5106173;28;20039;-67
2023/12/14 09:17:26;;;;;;;16.85;9.40;;;3.80;99.90;;;;;;5093116;28;20410;-67
2023/12/14 09:19:52;;;;;;;19.73;8.85;;;3.80;99.90;;;;;;5083301;28;20097;-66
2023/12/14 09:22:18;;;;;;;16.65;9.95;;;3.80;99.90;;;;;;5065398;28;20318;-67
2023/12/14 09:24:43;;;;;;;18.00;9.15;;;3.90;99.90;;;;;;5075675;28;20468;-67
2023/12/14 09:27:09;;;;;;;14.73;8.25;;;3.90;99.90;;;;;;5059521;28;20054;-67
2023/12/14 09:29:35;;;;;;;21.25;8.85;;;3.90;99.90;;;;;;5076208;28;20047;-67
2023/12/14 09:32:01;;;;;;;17.60;8.82;;;3.90;99.90;;;;;;5059806;28;20055;-66
2023/12/14 09:34:26;;;;;;;14.93;8.15;;;3.90;99.90;;;;;;5059090;28;20052;-67
2023/12/14 09:36:52;;;;;;;15.25;7.93;;;3.90;99.90;;;;;;5080190;28;20060;-67
2023/12/14 09:39:19;;;;;;;17.63;8.30;;;3.90;99.90;;;;;;5072400;28;20036;-67
2023/12/14 09:41:46;;;;;;;17.85;8.57;;;4.00;99.90;;;;;;5092531;28;20508;-67
2023/12/14 09:44:12;;;;;;;15.20;7.82;;;4.00;99.90;;;;;;5086405;28;20049;-67
2023/12/14 09:46:38;;;;;;;22.60;9.13;;;4.00;99.90;;;;;;5072224;28;20044;-67
2023/12/14 09:49:05;;;;;;;16.63;9.57;;;4.10;99.90;;;;;;5096669;28;20039;-67
2023/12/14 09:51:31;;;;;;;22.58;9.13;;;4.10;99.90;;;;;;5080760;28;20044;-67
2023/12/14 09:54:00;;;;;;;20.63;9.15;;;4.10;99.90;;;;;;5089571;28;20429;-66
2023/12/14 09:56:26;;;;;;;24.73;9.90;;;4.20;99.90;;;;;;5075408;28;20035;-67
2023/12/14 09:58:53;;;;;;;22.60;9.10;;;4.20;99.90;;;;;;5087611;28;20044;-67
2023/12/14 10:01:25;;;;;;;19.70;9.35;;;4.20;99.90;;;;;;5096374;28;20039;-67
2023/12/14 10:04:13;;;;;;;24.13;8.93;;;4.20;99.90;;;;;;5089242;28;20056;-67
2023/12/14 10:06:42;;;;;;;21.63;9.38;;;4.20;99.90;;;;;;5088789;28;20036;-67
2023/12/14 10:09:18;;;;;;;16.55;9.50;;;4.20;99.90;;;;;;5098831;28;20054;-67
2023/12/14 10:11:45;;;;;;;17.88;8.30;;;4.20;99.90;;;;;;5096175;28;20107;-67
2023/12/14 10:14:38;;;;;;;23.67;9.88;;;4.20;99.90;;;;;;5096332;28;20035;-67
2023/12/14 10:17:31;;;;;;;19.50;8.20;;;4.20;99.90;;;;;;5078278;28;20547;-66
2023/12/14 10:20:00;;;;;;;20.95;9.27;;;4.20;99.90;;;;;;5102828;28;20061;-67
2023/12/14 10:22:28;;;;;;;21.17;9.40;;;4.20;99.90;;;;;;5093956;28;20071;-67
2023/12/14 10:24:54;;;;;;;20.67;8.77;;;4.20;99.90;;;;;;5094500;28;20516;-67
2023/12/14 10:27:20;;;;;;;21.70;10.25;;;4.20;99.90;;;;;;5071015;28;20035;-67
2023/12/14 10:29:46;;;;;;;19.65;9.20;;;4.20;99.90;;;;;;5079535;28;20224;-67
2023/12/14 10:32:12;;;;;;;20.52;9.00;;;4.20;99.90;;;;;;5101160;28;20111;-67
2023/12/14 10:34:40;;;;;;;25.42;9.75;;;4.40;99.90;;;;;;5098280;28;20055;-67
2023/12/14 10:37:09;;;;;;;17.67;8.45;;;4.30;99.90;;;;;;5102093;28;20090;-66
2023/12/14 10:39:35;;;;;;;23.45;9.70;;;4.30;99.90;;;;;;5081765;28;20046;-67
2023/12/14 10:42:08;;;;;;;20.50;9.30;;;4.30;99.90;;;;;;5075688;28;20036;-67
2023/12/14 10:44:36;;;;;;;18.80;8.25;;;4.30;99.90;;;;;;5095211;28;20035;-67
2023/12/14 10:47:04;;;;;;;19.90;8.82;;;4.40;99.90;;;;;;5090641;28;20101;-67
2023/12/14 10:49:31;;;;;;;24.58;9.02;;;4.30;99.90;;;;;;5094047;28;20040;-67
2023/12/14 10:51:58;;;;;;;19.40;8.88;;;4.40;99.90;;;;;;5096030;28;20079;-67
2023/12/14 10:54:26;;;;;;;17.05;7.85;;;4.40;99.90;;;;;;5075707;28;20090;-67
2023/12/14 10:56:56;;;;;;;18.65;9.98;;;4.40;99.90;;;;;;5108106;28;20090;-67
2023/12/14 10:59:23;;;;;;;22.63;9.93;;;4.40;99.90;;;;;;5091103;28;20115;-67
2023/12/14 11:01:55;;;;;;;20.92;8.60;;;4.40;99.90;;;;;;5098295;28;20035;-67
2023/12/14 11:04:27;;;;;;;19.20;9.77;;;4.40;99.90;;;;;;5089512;28;20501;-67
2023/12/14 11:06:57;;;;;;;23.48;9.85;;;4.40;99.90;;;;;;5085329;28;20036;-67
2023/12/14 11:09:24;;;;;;;20.98;9.75;;;4.40;99.90;;;;;;5090126;28;20048;-67
2023/12/14 11:11:53;;;;;;;18.35;9.15;;;4.40;99.90;;;;;;5097495;28;20085;-67
2023/12/14 11:14:19;;;;;;;21.25;9.68;;;4.40;99.90;;;;;;5082892;28;20119;-67
2023/12/14 11:16:47;;;;;;;24.85;9.63;;;4.40;99.90;;;;;;5090259;28;20032;-67
2023/12/14 11:19:22;;;;;;;20.00;9.43;;;4.40;99.90;;;;;;5077203;28;20070;-67
2023/12/14 11:21:56;;;;;;;19.70;10.45;;;4.50;99.90;;;;;;5087666;28;20666;-67
2023/12/14 11:24:22;;;;;;;18.83;8.90;;;4.50;99.90;;;;;;5090952;28;20043;-67
2023/12/14 11:26:51;;;;;;;23.60;9.20;;;4.50;99.90;;;;;;5081298;28;20039;-67
2023/12/14 11:29:20;;;;;;;20.13;9.35;;;4.50;99.90;;;;;;5078874;28;20071;-67
2023/12/14 11:31:46;;;;;;;21.27;8.57;;;4.50;99.90;;;;;;5076415;28;20035;-67
2023/12/14 11:34:12;;;;;;;14.98;8.75;;;4.60;99.90;;;;;;5093880;28;20454;-67
2023/12/14 11:36:41;;;;;;;17.25;9.02;;;4.60;99.90;;;;;;5083992;28;20068;-67
2023/12/14 11:39:09;;;;;;;22.70;9.10;;;4.60;99.90;;;;;;5087534;28;20372;-67
2023/12/14 11:41:36;;;;;;;22.55;8.60;;;4.60;99.90;;;;;;5091768;28;20040;-67
2023/12/14 11:44:02;;;;;;;22.23;9.18;;;4.60;99.90;;;;;;5086272;28;20089;-67
2023/12/14 11:46:29;;;;;;;20.75;9.90;;;4.60;99.90;;;;;;5081467;28;20032;-67
2023/12/14 11:48:57;;;;;;;21.42;9.15;;;4.60;99.90;;;;;;5090594;28;20477;-67
2023/12/14 11:51:23;;;;;;;20.33;8.43;;;4.60;99.90;;;;;;5092611;28;20061;-67
2023/12/14 11:53:49;;;;;;;19.38;8.70;;;4.60;99.90;;;;;;5078099;28;20068;-67
2023/12/14 11:56:19;;;;;;;15.90;8.18;;;4.60;99.90;;;;;;5071769;28;20036;-67
2023/12/14 11:58:45;;;;;;;17.83;9.10;;;4.60;99.90;;;;;;5080291;28;20043;-67
2023/12/14 12:01:16;;;;;;;17.38;8.75;;;4.60;99.90;;;;;;5065047;28;20385;-67
2023/12/14 12:03:43;;;;;;;17.95;8.48;;;4.60;99.90;;;;;;5088133;28;20047;-67
2023/12/14 12:06:23;;;;;;;16.98;8.90;;;4.60;99.90;;;;;;5089677;28;20112;-67
2023/12/14 12:08:49;;;;;;;13.82;7.97;;;4.80;99.90;;;;;;5085138;28;20093;-67
2023/12/14 12:11:20;;;;;;;22.73;8.82;;;4.70;99.90;;;;;;5088000;28;20040;-67
2023/12/14 12:13:53;;;;;;;14.80;8.23;;;4.70;99.90;;;;;;5088913;28;20504;-67
2023/12/14 12:16:19;;;;;;;17.13;8.15;;;4.70;99.90;;;;;;5085278;28;20048;-67
2023/12/14 12:18:45;;;;;;;21.27;9.27;;;4.70;99.90;;;;;;5069473;28;20039;-67
2023/12/14 12:21:13;;;;;;;18.52;9.15;;;5.30;99.90;;;;;;5092797;28;20065;-67
2023/12/14 12:23:41;;;;;;;22.13;8.80;;;4.70;99.90;;;;;;5099556;28;20519;-67
2023/12/14 12:26:07;;;;;;;14.68;7.88;;;4.70;99.90;;;;;;5091958;28;20069;-67
2023/12/14 12:28:33;;;;;;;19.55;8.63;;;4.70;99.90;;;;;;5107484;28;20042;-67
2023/12/14 12:30:59;;;;;;;18.80;8.27;;;4.70;99.90;;;;;;5097389;28;20096;-67
2023/12/14 12:33:25;;;;;;;12.45;7.30;;;4.70;99.90;;;;;;5108049;28;20504;-67
2023/12/14 12:35:52;;;;;;;18.23;8.85;;;4.70;99.90;;;;;;5084121;28;20066;-67
2023/12/14 12:38:18;;;;;;;13.00;8.25;;;4.60;99.90;;;;;;5105768;28;20036;-67
2023/12/14 12:40:44;;;;;;;16.90;7.78;;;4.60;99.90;;;;;;5102033;28;20035;-67
2023/12/14 12:43:10;;;;;;;15.52;8.02;;;4.60;99.90;;;;;;5107522;28;20055;-67
2023/12/14 12:45:37;;;;;;;14.82;8.10;;;4.60;99.90;;;;;;5098274;28;20438;-67